createdAt,value
2018-12-18T00:00:34.212Z,4.10
2018-12-18T00:03:02.416Z,4.20
2018-12-18T00:05:34.876Z,4.20
2018-12-18T00:08:04.751Z,4.20
2018-12-18T00:10:38.408Z,4.20
2018-12-18T00:13:06.632Z,4.10
2018-12-18T00:15:34.831Z,4.10
2018-12-18T00:18:03.138Z,3.90
2018-12-18T00:20:31.340Z,3.90
2018-12-18T00:22:59.562Z,4.00
2018-12-18T00:25:27.772Z,4.10
2018-12-18T00:27:55.988Z,4.10
2018-12-18T00:30:24.200Z,4.00
2018-12-18T00:32:52.434Z,4.00
2018-12-18T00:35:20.649Z,4.10
2018-12-18T00:37:48.858Z,4.10
2018-12-18T00:40:17.152Z,4.10
2018-12-18T00:42:45.356Z,4.10
2018-12-18T00:45:13.596Z,4.00
2018-12-18T00:47:41.799Z,4.00
2018-12-18T00:50:10.020Z,4.00
2018-12-18T00:52:38.309Z,3.90
2018-12-18T00:55:07.904Z,3.80
2018-12-18T00:57:36.113Z,3.80
2018-12-18T01:00:06.025Z,3.80
2018-12-18T01:02:34.244Z,3.90
2018-12-18T01:05:02.552Z,4.10
2018-12-18T01:07:30.753Z,4.10
2018-12-18T01:09:58.987Z,4.20
2018-12-18T01:12:27.200Z,4.10
2018-12-18T01:14:55.531Z,4.00
2018-12-18T01:17:23.736Z,3.90
2018-12-18T01:19:51.957Z,3.70
2018-12-18T01:22:20.156Z,3.70
2018-12-18T01:24:48.370Z,3.70
2018-12-18T01:27:16.573Z,3.70
2018-12-18T01:29:44.816Z,3.70
2018-12-18T01:32:13.015Z,3.50
2018-12-18T01:34:41.244Z,3.40
2018-12-18T01:37:09.473Z,3.50
2018-12-18T01:39:37.692Z,3.50
2018-12-18T01:42:05.897Z,3.30
2018-12-18T01:44:34.110Z,3.30
2018-12-18T01:47:02.348Z,3.30
2018-12-18T01:49:30.551Z,3.20
2018-12-18T01:51:58.752Z,3.20
2018-12-18T01:54:26.963Z,3.20
2018-12-18T01:56:55.176Z,3.20
2018-12-18T01:59:23.483Z,3.20
2018-12-18T02:01:51.677Z,3.20
2018-12-18T02:04:19.948Z,3.20
2018-12-18T02:06:48.153Z,3.10
2018-12-18T02:09:16.365Z,3.00
2018-12-18T02:11:44.572Z,3.00
2018-12-18T02:14:12.880Z,3.10
2018-12-18T02:16:41.168Z,3.00
2018-12-18T02:19:09.430Z,3.10
2018-12-18T02:21:37.691Z,3.10
2018-12-18T02:24:05.919Z,2.90
2018-12-18T02:26:34.123Z,2.90
2018-12-18T02:29:02.345Z,2.90
2018-12-18T02:31:30.547Z,2.90
2018-12-18T02:33:58.774Z,2.80
2018-12-18T02:36:26.995Z,2.70
2018-12-18T02:38:55.209Z,2.60
2018-12-18T02:41:23.419Z,2.60
2018-12-18T02:43:51.633Z,2.60
2018-12-18T02:46:19.831Z,2.60
2018-12-18T02:48:48.048Z,2.60
2018-12-18T02:51:16.528Z,2.60
2018-12-18T02:53:44.749Z,2.70
2018-12-18T02:56:12.971Z,2.70
2018-12-18T02:58:41.168Z,2.70
2018-12-18T03:01:09.392Z,2.70
2018-12-18T03:03:37.591Z,2.80
2018-12-18T03:06:05.808Z,2.70
2018-12-18T03:08:34.012Z,2.70
2018-12-18T03:11:02.321Z,2.80
2018-12-18T03:13:30.543Z,2.80
2018-12-18T03:15:58.840Z,2.70
2018-12-18T03:18:27.040Z,2.70
2018-12-18T03:20:55.243Z,2.70
2018-12-18T03:23:23.447Z,2.60
2018-12-18T03:25:51.660Z,2.50
2018-12-18T03:28:19.859Z,2.40
2018-12-18T03:30:48.078Z,2.30
2018-12-18T03:33:16.285Z,2.30
2018-12-18T03:35:44.509Z,2.30
2018-12-18T03:38:12.720Z,2.30
2018-12-18T03:40:40.936Z,2.40
2018-12-18T03:43:09.241Z,2.40
2018-12-18T03:45:37.451Z,2.50
2018-12-18T03:48:05.749Z,2.50
2018-12-18T03:50:34.062Z,2.50
2018-12-18T03:53:02.269Z,2.50
2018-12-18T03:55:30.483Z,2.50
2018-12-18T03:57:58.691Z,2.50
2018-12-18T04:00:26.904Z,2.40
2018-12-18T04:02:55.109Z,2.40
2018-12-18T04:05:23.391Z,2.50
2018-12-18T04:07:51.601Z,2.50
2018-12-18T04:10:19.817Z,2.40
2018-12-18T04:12:48.029Z,2.10
2018-12-18T04:15:16.249Z,2.10
2018-12-18T04:17:44.557Z,1.90
2018-12-18T04:20:12.769Z,1.70
2018-12-18T04:22:40.980Z,1.70
2018-12-18T04:25:09.196Z,1.60
2018-12-18T04:27:37.408Z,1.60
2018-12-18T04:30:06.807Z,1.60
2018-12-18T04:32:35.112Z,1.70
2018-12-18T04:35:03.740Z,1.70
2018-12-18T04:37:32.038Z,1.70
2018-12-18T04:40:00.249Z,1.70
2018-12-18T04:42:28.541Z,1.90
2018-12-18T04:44:56.749Z,1.80
2018-12-18T04:47:24.951Z,1.70
2018-12-18T04:49:53.163Z,1.50
2018-12-18T04:52:21.367Z,1.40
2018-12-18T04:54:49.575Z,1.40
2018-12-18T04:57:17.785Z,1.50
2018-12-18T04:59:46.001Z,1.60
2018-12-18T05:02:14.210Z,1.60
2018-12-18T05:04:42.506Z,1.50
2018-12-18T05:07:10.735Z,1.30
2018-12-18T05:09:45.544Z,1.40
2018-12-18T05:12:13.768Z,1.50
2018-12-18T05:14:41.980Z,1.60
2018-12-18T05:17:10.190Z,1.50
2018-12-18T05:19:38.412Z,1.30
2018-12-18T05:22:06.619Z,1.10
2018-12-18T05:24:34.842Z,0.90
2018-12-18T05:27:03.034Z,0.90
2018-12-18T05:29:31.243Z,0.80
2018-12-18T05:31:59.550Z,0.80
2018-12-18T05:34:27.767Z,0.80
2018-12-18T05:36:55.986Z,0.70
2018-12-18T05:39:24.200Z,0.70
2018-12-18T05:41:52.436Z,1.00
2018-12-18T05:44:20.652Z,0.80
2018-12-18T05:46:48.880Z,0.70
2018-12-18T05:49:17.087Z,0.70
2018-12-18T05:51:45.306Z,1.00
2018-12-18T05:54:13.509Z,0.90
2018-12-18T05:56:41.796Z,0.90
2018-12-18T05:59:10.031Z,0.80
2018-12-18T06:01:38.257Z,0.70
2018-12-18T06:04:06.466Z,0.80
2018-12-18T06:06:34.835Z,0.80
2018-12-18T06:09:05.151Z,0.70
2018-12-18T06:11:33.362Z,0.70
2018-12-18T06:14:01.571Z,0.80
2018-12-18T06:16:29.805Z,0.70
2018-12-18T06:18:58.099Z,0.70
2018-12-18T06:21:26.329Z,0.60
2018-12-18T06:23:54.533Z,0.60
2018-12-18T06:26:22.756Z,1.00
2018-12-18T06:28:50.960Z,0.90
2018-12-18T06:31:19.168Z,0.70
2018-12-18T06:33:47.385Z,0.70
2018-12-18T06:36:15.837Z,0.70
2018-12-18T06:38:44.044Z,0.90
2018-12-18T06:41:12.253Z,1.00
2018-12-18T06:43:40.471Z,1.10
2018-12-18T06:46:08.692Z,1.30
2018-12-18T06:48:36.909Z,1.20
2018-12-18T06:51:05.356Z,0.90
2018-12-18T06:53:33.548Z,0.80
2018-12-18T06:56:01.790Z,0.70
2018-12-18T06:58:29.988Z,0.80
2018-12-18T07:00:58.224Z,0.80
2018-12-18T07:03:26.426Z,1.00
2018-12-18T07:05:54.646Z,0.80
2018-12-18T07:08:22.959Z,0.70
2018-12-18T07:10:51.191Z,0.40
2018-12-18T07:13:19.518Z,0.30
2018-12-18T07:15:47.816Z,0.20
2018-12-18T07:18:16.015Z,0.10
2018-12-18T07:20:44.248Z,0.10
2018-12-18T07:23:12.459Z,0.10
2018-12-18T07:25:40.789Z,0.00
2018-12-18T07:28:09.029Z,-0.10
2018-12-18T07:30:37.355Z,-0.10
2018-12-18T07:33:05.590Z,-0.10
2018-12-18T07:35:33.823Z,-0.10
2018-12-18T07:38:02.047Z,-0.10
2018-12-18T07:40:30.297Z,-0.20
2018-12-18T07:42:58.696Z,-0.20
2018-12-18T07:45:26.992Z,-0.20
2018-12-18T07:47:55.215Z,0.00
2018-12-18T07:50:23.507Z,0.00
2018-12-18T07:52:51.720Z,0.10
2018-12-18T07:55:19.954Z,0.00
2018-12-18T07:57:48.176Z,0.00
2018-12-18T08:00:16.389Z,0.00
2018-12-18T08:02:44.623Z,0.10
2018-12-18T08:05:12.855Z,0.00
2018-12-18T08:07:41.093Z,0.00
2018-12-18T08:10:09.388Z,0.00
2018-12-18T08:12:37.611Z,-0.10
2018-12-18T08:15:06.067Z,-0.10
2018-12-18T08:17:34.379Z,-0.20
2018-12-18T08:20:02.784Z,-0.20
2018-12-18T08:22:31.114Z,-0.10
2018-12-18T08:24:59.330Z,0.10
2018-12-18T08:27:27.544Z,0.20
2018-12-18T08:29:55.764Z,0.20
2018-12-18T08:32:23.987Z,0.30
2018-12-18T08:34:52.226Z,0.50
2018-12-18T08:37:20.442Z,0.60
2018-12-18T08:39:48.655Z,0.70
2018-12-18T08:42:16.872Z,0.70
2018-12-18T08:44:45.107Z,0.70
2018-12-18T08:47:13.308Z,0.80
2018-12-18T08:49:41.512Z,0.90
2018-12-18T08:52:09.756Z,0.90
2018-12-18T08:54:37.958Z,0.90
2018-12-18T08:57:06.268Z,1.00
2018-12-18T08:59:34.496Z,0.90
2018-12-18T09:02:02.717Z,1.00
2018-12-18T09:04:30.947Z,1.30
2018-12-18T09:06:59.175Z,1.20
2018-12-18T09:09:27.489Z,1.10
2018-12-18T09:11:55.704Z,1.20
2018-12-18T09:14:23.948Z,1.40
2018-12-18T09:16:57.591Z,1.40
2018-12-18T09:19:25.801Z,1.60
2018-12-18T09:21:54.036Z,1.70
2018-12-18T09:24:22.340Z,1.70
2018-12-18T09:26:50.551Z,1.90
2018-12-18T09:29:18.771Z,2.00
2018-12-18T09:31:47.005Z,2.30
2018-12-18T09:34:15.229Z,2.50
2018-12-18T09:36:43.452Z,2.70
2018-12-18T09:39:17.197Z,3.10
2018-12-18T09:41:47.887Z,3.10
2018-12-18T09:44:17.036Z,3.40
2018-12-18T09:46:45.255Z,3.60
2018-12-18T09:49:13.559Z,3.80
2018-12-18T09:51:41.960Z,4.00
2018-12-18T09:54:10.181Z,4.20
2018-12-18T09:56:43.936Z,4.20
2018-12-18T09:59:12.160Z,4.50
2018-12-18T10:01:40.372Z,4.70
2018-12-18T10:04:08.584Z,5.10
2018-12-18T10:06:36.821Z,5.40
2018-12-18T10:09:09.686Z,5.70
2018-12-18T10:11:37.912Z,5.80
2018-12-18T10:14:06.302Z,6.20
2018-12-18T10:16:34.516Z,6.50
2018-12-18T10:19:02.737Z,6.80
2018-12-18T10:21:30.948Z,7.10
2018-12-18T10:23:59.175Z,7.30
2018-12-18T10:26:27.484Z,7.50
2018-12-18T10:28:55.703Z,7.80
2018-12-18T10:31:23.949Z,8.00
2018-12-18T10:33:52.193Z,8.20
2018-12-18T10:36:20.399Z,8.30
2018-12-18T10:38:48.619Z,8.30
2018-12-18T10:41:16.825Z,8.20
2018-12-18T10:43:45.051Z,8.40
2018-12-18T10:46:13.264Z,8.50
2018-12-18T10:48:41.500Z,8.50
2018-12-18T10:51:09.709Z,8.60
2018-12-18T10:53:37.930Z,8.70
2018-12-18T10:56:06.144Z,8.60
2018-12-18T10:58:34.373Z,8.70
2018-12-18T11:01:08.348Z,8.70
2018-12-18T11:03:36.624Z,8.70
2018-12-18T11:06:09.890Z,8.70
2018-12-18T11:08:35.044Z,8.90
2018-12-18T11:11:04.120Z,9.20
2018-12-18T11:16:14.944Z,9.40
2018-12-18T11:18:43.393Z,9.20
2018-12-18T11:21:11.642Z,9.30
2018-12-18T11:23:39.988Z,9.50
2018-12-18T11:26:08.268Z,9.50
2018-12-18T11:28:36.540Z,9.50
2018-12-18T11:31:04.813Z,9.40
2018-12-18T11:33:33.095Z,9.10
2018-12-18T11:36:01.371Z,9.10
2018-12-18T11:38:29.642Z,9.00
2018-12-18T11:40:57.949Z,8.80
2018-12-18T11:43:26.278Z,8.90
2018-12-18T11:45:54.536Z,8.80
2018-12-18T11:48:22.880Z,8.60
2018-12-18T11:53:37.189Z,8.60
2018-12-18T11:56:05.628Z,8.60
2018-12-18T11:58:33.910Z,8.70
2018-12-18T12:01:02.220Z,8.80
2018-12-18T12:03:31.567Z,8.80
2018-12-18T12:05:59.783Z,8.80
2018-12-18T12:08:28.012Z,8.90
2018-12-18T12:10:56.229Z,8.90
2018-12-18T12:13:24.453Z,8.90
2018-12-18T12:15:52.654Z,8.70
2018-12-18T12:18:20.873Z,8.50
2018-12-18T12:20:49.076Z,8.50
2018-12-18T12:23:17.291Z,8.40
2018-12-18T12:25:45.508Z,8.30
2018-12-18T12:28:13.739Z,8.20
2018-12-18T12:30:41.944Z,8.10
2018-12-18T12:33:10.263Z,8.00
2018-12-18T12:35:38.559Z,8.00
2018-12-18T12:38:06.808Z,8.00
2018-12-18T12:40:35.160Z,7.90
2018-12-18T12:43:03.385Z,7.90
2018-12-18T12:45:31.690Z,7.90
2018-12-18T12:48:00.338Z,8.00
2018-12-18T12:50:28.650Z,7.90
2018-12-18T12:52:56.877Z,7.90
2018-12-18T12:55:25.098Z,7.80
2018-12-18T12:57:53.324Z,7.60
2018-12-18T13:00:21.551Z,7.50
2018-12-18T13:02:49.772Z,7.50
2018-12-18T13:05:17.989Z,7.40
2018-12-18T13:07:46.220Z,7.30
2018-12-18T13:10:14.433Z,7.30
2018-12-18T13:12:42.668Z,7.20
2018-12-18T13:15:10.894Z,7.10
2018-12-18T13:17:39.108Z,7.10
2018-12-18T13:20:07.628Z,7.10
2018-12-18T13:22:35.862Z,7.20
2018-12-18T13:25:05.062Z,7.20
2018-12-18T13:27:33.334Z,7.20
2018-12-18T13:30:01.564Z,7.10
2018-12-18T13:32:29.781Z,6.90
2018-12-18T13:34:58.216Z,6.90
2018-12-18T13:37:26.416Z,7.00
2018-12-18T13:39:54.635Z,6.90
2018-12-18T13:42:22.848Z,6.70
2018-12-18T13:44:51.186Z,6.70
2018-12-18T13:47:19.372Z,6.70
2018-12-18T13:49:47.591Z,6.60
2018-12-18T13:52:15.814Z,6.50
2018-12-18T13:54:44.052Z,6.50
2018-12-18T13:57:12.285Z,6.40
2018-12-18T13:59:40.533Z,6.40
2018-12-18T14:02:08.757Z,6.40
2018-12-18T14:04:36.993Z,6.40
2018-12-18T14:07:05.291Z,6.20
2018-12-18T14:09:33.511Z,6.10
2018-12-18T14:12:01.728Z,6.10
2018-12-18T14:14:29.952Z,6.20
2018-12-18T14:16:58.183Z,6.20
2018-12-18T14:19:26.412Z,6.10
2018-12-18T14:21:54.728Z,6.00
2018-12-18T14:24:23.045Z,5.90
2018-12-18T14:26:51.263Z,6.00
2018-12-18T14:29:19.511Z,5.80
2018-12-18T14:31:47.720Z,5.70
2018-12-18T14:34:16.026Z,5.60
2018-12-18T14:36:44.258Z,5.60
2018-12-18T14:39:12.490Z,5.50
2018-12-18T14:41:40.707Z,5.30
2018-12-18T14:44:08.958Z,5.20
2018-12-18T14:46:37.260Z,5.10
2018-12-18T14:49:05.653Z,5.20
2018-12-18T14:51:33.877Z,5.10
2018-12-18T14:54:02.513Z,5.10
2018-12-18T14:56:30.734Z,5.20
2018-12-18T14:58:58.981Z,5.20
2018-12-18T15:01:27.248Z,5.30
2018-12-18T15:03:55.463Z,5.10
2018-12-18T15:06:23.702Z,5.00
2018-12-18T15:08:51.917Z,4.90
2018-12-18T15:11:20.156Z,4.70
2018-12-18T15:13:48.371Z,4.50
2018-12-18T15:16:16.583Z,4.50
2018-12-18T15:18:44.895Z,4.30
2018-12-18T15:21:13.299Z,4.20
2018-12-18T15:23:41.508Z,4.10
2018-12-18T15:26:09.820Z,4.10
2018-12-18T15:28:38.035Z,3.90
2018-12-18T15:31:06.368Z,4.00
2018-12-18T15:33:34.673Z,3.90
2018-12-18T15:36:03.008Z,4.10
2018-12-18T15:38:31.279Z,4.20
2018-12-18T15:40:59.513Z,3.90
2018-12-18T15:43:27.768Z,3.70
2018-12-18T15:45:56.031Z,3.60
2018-12-18T15:48:24.250Z,3.60
2018-12-18T15:50:52.486Z,3.50
2018-12-18T15:53:20.710Z,3.20
2018-12-18T15:55:48.923Z,3.10
2018-12-18T15:58:17.178Z,3.00
2018-12-18T16:00:45.504Z,3.00
2018-12-18T16:03:13.724Z,3.00
2018-12-18T16:05:41.980Z,3.00
2018-12-18T16:08:10.192Z,3.10
2018-12-18T16:10:44.812Z,3.00
2018-12-18T16:13:13.091Z,3.10
2018-12-18T16:15:41.321Z,3.10
2018-12-18T16:18:09.536Z,3.10
2018-12-18T16:20:37.766Z,3.00
2018-12-18T16:23:06.011Z,3.10
2018-12-18T16:25:34.237Z,3.10
2018-12-18T16:28:02.460Z,3.00
2018-12-18T16:30:30.684Z,3.00
2018-12-18T16:32:58.908Z,2.90
2018-12-18T16:35:28.274Z,2.90
2018-12-18T16:37:56.683Z,2.80
2018-12-18T16:40:24.907Z,2.70
2018-12-18T16:42:53.151Z,2.70
2018-12-18T16:45:21.388Z,2.70
2018-12-18T16:47:49.605Z,2.70
2018-12-18T16:50:17.832Z,2.60
2018-12-18T16:52:46.084Z,2.60
2018-12-18T16:55:14.312Z,2.40
2018-12-18T16:57:42.528Z,2.40
2018-12-18T17:00:11.076Z,2.40
2018-12-18T17:02:39.398Z,2.30
2018-12-18T17:05:08.165Z,2.30
2018-12-18T17:07:36.379Z,2.40
2018-12-18T17:10:05.697Z,2.40
2018-12-18T17:12:33.995Z,2.30
2018-12-18T17:15:02.311Z,2.30
2018-12-18T17:17:30.535Z,2.20
2018-12-18T17:19:58.760Z,2.00
2018-12-18T17:22:27.027Z,1.80
2018-12-18T17:24:55.244Z,1.80
2018-12-18T17:27:23.468Z,1.90
2018-12-18T17:29:51.696Z,1.80
2018-12-18T17:32:19.915Z,1.80
2018-12-18T17:34:48.149Z,1.90
2018-12-18T17:37:16.359Z,2.00
2018-12-18T17:39:44.597Z,2.10
2018-12-18T17:42:12.824Z,2.10
2018-12-18T17:44:41.266Z,1.90
2018-12-18T17:47:09.484Z,1.70
2018-12-18T17:49:37.708Z,1.60
2018-12-18T17:52:05.973Z,1.60
2018-12-18T17:54:34.242Z,1.70
2018-12-18T17:57:02.496Z,1.70
2018-12-18T17:59:40.625Z,1.70
2018-12-18T18:02:08.996Z,1.80
2018-12-18T18:04:37.226Z,1.90
2018-12-18T18:07:05.645Z,1.80
2018-12-18T18:09:33.985Z,2.00
2018-12-18T18:12:02.225Z,2.00
2018-12-18T18:14:30.477Z,1.80
2018-12-18T18:16:58.907Z,1.80
2018-12-18T18:19:27.132Z,1.80
2018-12-18T18:21:55.434Z,1.70
2018-12-18T18:24:23.819Z,1.50
2018-12-18T18:26:52.045Z,1.60
2018-12-18T18:29:20.266Z,1.70
2018-12-18T18:31:48.626Z,1.70
2018-12-18T18:34:16.994Z,1.70
2018-12-18T18:36:45.235Z,1.70
2018-12-18T18:39:13.473Z,1.60
2018-12-18T18:41:41.706Z,1.70
2018-12-18T18:44:09.992Z,1.70
2018-12-18T18:46:38.248Z,1.70
2018-12-18T18:49:06.596Z,1.60
2018-12-18T18:51:34.839Z,1.70
2018-12-18T18:54:03.284Z,1.70
2018-12-18T18:56:31.660Z,1.60
2018-12-18T18:59:00.845Z,1.60
2018-12-18T19:01:29.102Z,1.50
2018-12-18T19:03:59.780Z,1.50
2018-12-18T19:06:28.215Z,1.50
2018-12-18T19:08:56.451Z,1.40
2018-12-18T19:11:25.264Z,1.40
2018-12-18T19:13:53.877Z,1.40
2018-12-18T19:16:22.221Z,1.40
2018-12-18T19:18:51.973Z,1.30
2018-12-18T19:21:24.735Z,1.50
2018-12-18T19:23:52.977Z,1.60
2018-12-18T19:26:21.212Z,1.50
2018-12-18T19:28:50.307Z,1.60
2018-12-18T19:31:18.930Z,1.70
2018-12-18T19:33:47.156Z,1.50
2018-12-18T19:36:15.402Z,1.50
2018-12-18T19:38:43.667Z,1.60
2018-12-18T19:41:11.904Z,1.50
2018-12-18T19:43:40.185Z,1.50
2018-12-18T19:46:08.439Z,1.30
2018-12-18T19:48:37.471Z,1.10
2018-12-18T19:51:05.728Z,1.00
2018-12-18T19:53:33.970Z,1.00
2018-12-18T19:56:02.231Z,1.00
2018-12-18T19:58:32.240Z,1.00
2018-12-18T20:01:00.469Z,1.10
2018-12-18T20:03:29.380Z,1.00
2018-12-18T20:05:57.609Z,0.90
2018-12-18T20:08:27.775Z,0.80
2018-12-18T20:11:05.697Z,0.60
2018-12-18T20:13:35.257Z,0.70
2018-12-18T20:16:03.667Z,0.80
2018-12-18T20:18:38.746Z,0.80
2018-12-18T20:21:06.984Z,0.80
2018-12-18T20:23:35.203Z,0.70
2018-12-18T20:26:03.540Z,0.60
2018-12-18T20:28:34.740Z,0.50
2018-12-18T20:31:07.118Z,0.40
2018-12-18T20:33:35.474Z,0.20
2018-12-18T20:36:03.786Z,0.20
2018-12-18T20:38:32.016Z,0.30
2018-12-18T20:41:00.710Z,0.20
2018-12-18T20:43:28.928Z,0.10
2018-12-18T20:45:57.516Z,0.20
2018-12-18T20:48:25.737Z,0.30
2018-12-18T20:50:56.867Z,0.40
2018-12-18T20:53:25.218Z,0.60
2018-12-18T20:55:53.433Z,0.60
2018-12-18T20:58:23.588Z,0.70
2018-12-18T21:00:51.804Z,0.80
2018-12-18T21:03:20.028Z,0.70
2018-12-18T21:05:48.331Z,0.50
2018-12-18T21:08:23.209Z,0.60
2018-12-18T21:10:46.971Z,0.50
2018-12-18T21:13:20.769Z,0.40
2018-12-18T21:15:49.065Z,0.40
2018-12-18T21:18:17.478Z,0.30
2018-12-18T21:20:45.776Z,0.30
2018-12-18T21:23:14.096Z,0.40
2018-12-18T21:25:42.408Z,0.50
2018-12-18T21:28:10.721Z,0.70
2018-12-18T21:30:39.028Z,0.70
2018-12-18T21:33:07.344Z,0.70
2018-12-18T21:35:35.785Z,0.70
2018-12-18T21:38:04.207Z,0.60
2018-12-18T21:40:32.507Z,0.50
2018-12-18T21:43:00.822Z,0.50
2018-12-18T21:45:30.211Z,0.50
2018-12-18T21:47:58.538Z,0.40
2018-12-18T21:50:26.834Z,0.30
2018-12-18T21:52:55.139Z,0.30
2018-12-18T21:55:23.432Z,0.30
2018-12-18T21:57:51.744Z,0.30
2018-12-18T22:00:20.040Z,0.40
2018-12-18T22:02:48.413Z,0.50
2018-12-18T22:05:16.708Z,0.40
2018-12-18T22:07:45.016Z,0.50
2018-12-18T22:10:13.327Z,0.50
2018-12-18T22:12:41.634Z,0.50
2018-12-18T22:15:09.949Z,0.60
2018-12-18T22:17:38.257Z,0.70
2018-12-18T22:20:06.756Z,0.80
2018-12-18T22:22:35.076Z,0.70
2018-12-18T22:25:03.404Z,0.60
2018-12-18T22:27:31.633Z,0.70
2018-12-18T22:29:59.869Z,0.90
2018-12-18T22:32:28.088Z,0.90
2018-12-18T22:34:56.327Z,0.80
2018-12-18T22:37:24.562Z,0.90
2018-12-18T22:39:52.775Z,0.80
2018-12-18T22:42:21.014Z,0.80
2018-12-18T22:44:49.233Z,0.70
2018-12-18T22:47:17.540Z,0.70
2018-12-18T22:49:45.751Z,0.60
2018-12-18T22:52:13.971Z,0.70
2018-12-18T22:54:42.197Z,0.70
2018-12-18T22:57:10.499Z,0.70
2018-12-18T22:59:38.716Z,0.80
2018-12-18T23:02:12.424Z,0.80
2018-12-18T23:04:41.236Z,0.90
2018-12-18T23:07:09.571Z,0.80
2018-12-18T23:09:37.797Z,0.90
2018-12-18T23:12:06.011Z,1.00
2018-12-18T23:14:34.231Z,0.90
2018-12-18T23:17:02.439Z,0.90
2018-12-18T23:19:30.668Z,0.90
2018-12-18T23:21:58.881Z,1.00
2018-12-18T23:24:27.108Z,1.20
2018-12-18T23:26:55.321Z,1.20
2018-12-18T23:29:23.540Z,1.20
2018-12-18T23:31:51.756Z,1.10
2018-12-18T23:34:21.365Z,1.10
2018-12-18T23:36:49.711Z,1.30
2018-12-18T23:39:17.970Z,1.40
2018-12-18T23:41:46.566Z,1.50
2018-12-18T23:44:14.863Z,1.50
2018-12-18T23:46:43.177Z,1.60
2018-12-18T23:49:11.409Z,1.60
2018-12-18T23:51:39.616Z,1.60
2018-12-18T23:54:07.847Z,1.50
2018-12-18T23:56:36.073Z,1.50
2018-12-18T23:59:04.298Z,1.40
